sensor_id;sensor_type;location;lat;lon;timestamp;pressure;altitude;pressure_sealevel;temperature;humidity
22743;BME280;11538;48.884;8.696;2022-07-10T00:01:08;99423.94;;;20.33;72.08
22743;BME280;11538;48.884;8.696;2022-07-10T00:03:34;99430.59;;;20.31;71.63
22743;BME280;11538;48.884;8.696;2022-07-10T00:06:01;99428.19;;;20.30;71.40
22743;BME280;11538;48.884;8.696;2022-07-10T00:08:28;99426.94;;;20.27;71.09
22743;BME280;11538;48.884;8.696;2022-07-10T00:10:55;99429.00;;;20.30;70.93
22743;BME280;11538;48.884;8.696;2022-07-10T00:13:22;99432.66;;;20.35;70.44
22743;BME280;11538;48.884;8.696;2022-07-10T00:15:50;99421.19;;;20.33;70.53
22743;BME280;11538;48.884;8.696;2022-07-10T00:18:17;99423.81;;;20.29;70.40
22743;BME280;11538;48.884;8.696;2022-07-10T00:20:44;99416.72;;;20.28;70.35
22743;BME280;11538;48.884;8.696;2022-07-10T00:23:11;99417.53;;;20.28;69.94
22743;BME280;11538;48.884;8.696;2022-07-10T00:25:38;99416.25;;;20.26;69.93
22743;BME280;11538;48.884;8.696;2022-07-10T00:28:05;99407.09;;;20.22;69.83
22743;BME280;11538;48.884;8.696;2022-07-10T00:30:31;99412.16;;;20.20;70.16
22743;BME280;11538;48.884;8.696;2022-07-10T00:32:58;99412.75;;;20.13;70.36
22743;BME280;11538;48.884;8.696;2022-07-10T00:35:26;99410.34;;;20.11;70.61
22743;BME280;11538;48.884;8.696;2022-07-10T00:37:53;99408.94;;;20.17;69.93
22743;BME280;11538;48.884;8.696;2022-07-10T00:40:19;99411.25;;;20.15;69.82
22743;BME280;11538;48.884;8.696;2022-07-10T00:42:46;99410.00;;;20.13;70.22
22743;BME280;11538;48.884;8.696;2022-07-10T00:45:13;99406.78;;;20.11;70.36
22743;BME280;11538;48.884;8.696;2022-07-10T00:47:40;99402.91;;;20.12;70.19
22743;BME280;11538;48.884;8.696;2022-07-10T00:50:08;99405.91;;;20.07;70.91
22743;BME280;11538;48.884;8.696;2022-07-10T00:52:35;99408.66;;;20.07;71.27
22743;BME280;11538;48.884;8.696;2022-07-10T00:55:07;99405.44;;;20.05;71.55
22743;BME280;11538;48.884;8.696;2022-07-10T00:57:36;99394.31;;;20.01;72.23
22743;BME280;11538;48.884;8.696;2022-07-10T01:00:05;99396.28;;;20.00;72.20
22743;BME280;11538;48.884;8.696;2022-07-10T01:02:32;99392.63;;;19.96;72.89
22743;BME280;11538;48.884;8.696;2022-07-10T01:05:00;99399.16;;;19.92;73.27
22743;BME280;11538;48.884;8.696;2022-07-10T01:07:27;99400.06;;;19.83;73.90
22743;BME280;11538;48.884;8.696;2022-07-10T01:09:54;99397.41;;;19.87;74.04
22743;BME280;11538;48.884;8.696;2022-07-10T01:12:22;99401.19;;;19.82;74.28
22743;BME280;11538;48.884;8.696;2022-07-10T01:14:49;99404.97;;;19.78;74.65
22743;BME280;11538;48.884;8.696;2022-07-10T01:17:16;99403.75;;;19.75;75.00
22743;BME280;11538;48.884;8.696;2022-07-10T01:19:43;99408.44;;;19.75;75.98
22743;BME280;11538;48.884;8.696;2022-07-10T01:22:10;99409.81;;;19.68;76.48
22743;BME280;11538;48.884;8.696;2022-07-10T01:24:38;99396.66;;;19.62;76.52
22743;BME280;11538;48.884;8.696;2022-07-10T01:27:05;99398.94;;;19.60;77.42
22743;BME280;11538;48.884;8.696;2022-07-10T01:29:32;99398.47;;;19.70;76.10
22743;BME280;11538;48.884;8.696;2022-07-10T01:31:59;99400.31;;;19.66;75.95
22743;BME280;11538;48.884;8.696;2022-07-10T01:34:28;99397.19;;;19.67;75.81
22743;BME280;11538;48.884;8.696;2022-07-10T01:36:55;99389.75;;;19.68;75.72
22743;BME280;11538;48.884;8.696;2022-07-10T01:39:22;99400.31;;;19.66;75.55
22743;BME280;11538;48.884;8.696;2022-07-10T01:41:49;99399.25;;;19.70;74.86
22743;BME280;11538;48.884;8.696;2022-07-10T01:44:16;99408.44;;;19.75;74.29
22743;BME280;11538;48.884;8.696;2022-07-10T01:46:47;99404.06;;;19.73;74.30
22743;BME280;11538;48.884;8.696;2022-07-10T01:49:15;99407.19;;;19.72;74.33
22743;BME280;11538;48.884;8.696;2022-07-10T01:51:42;99405.22;;;19.72;74.05
22743;BME280;11538;48.884;8.696;2022-07-10T01:54:10;99407.88;;;19.69;73.96
22743;BME280;11538;48.884;8.696;2022-07-10T01:56:37;99410.06;;;19.63;74.21
22743;BME280;11538;48.884;8.696;2022-07-10T01:59:05;99405.94;;;19.57;74.09
22743;BME280;11538;48.884;8.696;2022-07-10T02:01:32;99405.84;;;19.53;74.54
22743;BME280;11538;48.884;8.696;2022-07-10T02:03:59;99408.22;;;19.55;74.69
22743;BME280;11538;48.884;8.696;2022-07-10T02:06:45;99409.50;;;19.57;74.67
22743;BME280;11538;48.884;8.696;2022-07-10T02:09:12;99409.03;;;19.55;75.09
22743;BME280;11538;48.884;8.696;2022-07-10T02:11:39;99412.13;;;19.54;75.18
22743;BME280;11538;48.884;8.696;2022-07-10T02:14:06;99410.88;;;19.51;75.15
22743;BME280;11538;48.884;8.696;2022-07-10T02:16:35;99415.09;;;19.49;75.18
22743;BME280;11538;48.884;8.696;2022-07-10T02:19:03;99423.38;;;19.49;75.42
22743;BME280;11538;48.884;8.696;2022-07-10T02:21:30;99422.00;;;19.42;75.88
22743;BME280;11538;48.884;8.696;2022-07-10T02:23:57;99424.03;;;19.33;76.05
22743;BME280;11538;48.884;8.696;2022-07-10T02:26:24;99427.72;;;19.25;76.47
22743;BME280;11538;48.884;8.696;2022-07-10T02:28:51;99425.19;;;19.20;76.76
22743;BME280;11538;48.884;8.696;2022-07-10T02:31:21;99435.25;;;19.16;76.96
22743;BME280;11538;48.884;8.696;2022-07-10T02:33:48;99436.06;;;19.16;76.88
22743;BME280;11538;48.884;8.696;2022-07-10T02:36:15;99438.25;;;19.10;76.97
22743;BME280;11538;48.884;8.696;2022-07-10T02:38:42;99435.50;;;19.10;76.74
22743;BME280;11538;48.884;8.696;2022-07-10T02:41:09;99442.13;;;19.09;76.55
22743;BME280;11538;48.884;8.696;2022-07-10T02:43:36;99438.78;;;19.04;76.72
22743;BME280;11538;48.884;8.696;2022-07-10T02:46:03;99442.41;;;18.95;76.96
22743;BME280;11538;48.884;8.696;2022-07-10T02:48:30;99439.09;;;18.90;77.07
22743;BME280;11538;48.884;8.696;2022-07-10T02:50:57;99447.66;;;18.88;77.41
22743;BME280;11538;48.884;8.696;2022-07-10T02:53:24;99445.72;;;18.89;77.13
22743;BME280;11538;48.884;8.696;2022-07-10T02:55:51;99446.41;;;18.85;77.21
22743;BME280;11538;48.884;8.696;2022-07-10T02:58:18;99449.69;;;18.79;77.47
22743;BME280;11538;48.884;8.696;2022-07-10T03:00:46;99445.69;;;18.76;77.32
22743;BME280;11538;48.884;8.696;2022-07-10T03:03:13;99441.34;;;18.75;77.31
22743;BME280;11538;48.884;8.696;2022-07-10T03:05:40;99448.28;;;18.73;77.49
22743;BME280;11538;48.884;8.696;2022-07-10T03:08:07;99444.28;;;18.70;77.51
22743;BME280;11538;48.884;8.696;2022-07-10T03:10:34;99454.81;;;18.68;77.70
22743;BME280;11538;48.884;8.696;2022-07-10T03:13:01;99456.50;;;18.60;77.95
22743;BME280;11538;48.884;8.696;2022-07-10T03:15:28;99450.38;;;18.54;77.76
22743;BME280;11538;48.884;8.696;2022-07-10T03:17:55;99457.03;;;18.53;77.83
22743;BME280;11538;48.884;8.696;2022-07-10T03:20:23;99455.97;;;18.46;77.41
22743;BME280;11538;48.884;8.696;2022-07-10T03:22:50;99454.91;;;18.38;78.46
22743;BME280;11538;48.884;8.696;2022-07-10T03:25:17;99457.31;;;18.39;77.74
22743;BME280;11538;48.884;8.696;2022-07-10T03:27:44;99462.00;;;18.39;77.38
22743;BME280;11538;48.884;8.696;2022-07-10T03:30:11;99464.75;;;18.39;77.05
22743;BME280;11538;48.884;8.696;2022-07-10T03:32:38;99459.13;;;18.35;77.08
22743;BME280;11538;48.884;8.696;2022-07-10T03:35:05;99466.34;;;18.40;76.60
22743;BME280;11538;48.884;8.696;2022-07-10T03:37:33;99455.25;;;18.36;76.23
22743;BME280;11538;48.884;8.696;2022-07-10T03:40:00;99465.97;;;18.29;76.74
22743;BME280;11538;48.884;8.696;2022-07-10T03:42:26;99468.78;;;18.20;76.98
22743;BME280;11538;48.884;8.696;2022-07-10T03:44:53;99462.97;;;18.22;76.82
22743;BME280;11538;48.884;8.696;2022-07-10T03:47:20;99460.22;;;18.22;76.59
22743;BME280;11538;48.884;8.696;2022-07-10T03:49:47;99460.53;;;18.20;76.29
22743;BME280;11538;48.884;8.696;2022-07-10T03:52:14;99459.41;;;18.21;76.04
22743;BME280;11538;48.884;8.696;2022-07-10T03:54:41;99460.88;;;18.19;75.69
22743;BME280;11538;48.884;8.696;2022-07-10T03:57:08;99461.41;;;18.12;75.95
22743;BME280;11538;48.884;8.696;2022-07-10T03:59:53;99458.19;;;18.10;75.71
22743;BME280;11538;48.884;8.696;2022-07-10T04:02:20;99465.16;;;18.07;75.49
22743;BME280;11538;48.884;8.696;2022-07-10T04:04:47;99468.03;;;18.11;75.03
22743;BME280;11538;48.884;8.696;2022-07-10T04:07:17;99457.41;;;18.09;74.79
22743;BME280;11538;48.884;8.696;2022-07-10T04:09:44;99463.56;;;18.06;74.65
22743;BME280;11538;48.884;8.696;2022-07-10T04:12:11;99463.75;;;18.01;74.59
22743;BME280;11538;48.884;8.696;2022-07-10T04:14:38;99469.25;;;18.01;74.36
22743;BME280;11538;48.884;8.696;2022-07-10T04:17:05;99474.22;;;17.99;74.43
22743;BME280;11538;48.884;8.696;2022-07-10T04:19:32;99473.72;;;18.06;73.70
22743;BME280;11538;48.884;8.696;2022-07-10T04:21:59;99467.63;;;18.00;73.56
22743;BME280;11538;48.884;8.696;2022-07-10T04:24:26;99468.28;;;17.97;73.37
22743;BME280;11538;48.884;8.696;2022-07-10T04:26:53;99471.81;;;17.97;72.84
22743;BME280;11538;48.884;8.696;2022-07-10T04:29:20;99469.72;;;18.03;72.52
22743;BME280;11538;48.884;8.696;2022-07-10T04:31:46;99470.50;;;18.04;72.44
22743;BME280;11538;48.884;8.696;2022-07-10T04:34:14;99478.72;;;18.04;72.58
22743;BME280;11538;48.884;8.696;2022-07-10T04:36:40;99469.41;;;17.96;72.75
22743;BME280;11538;48.884;8.696;2022-07-10T04:39:07;99473.78;;;17.88;72.62
22743;BME280;11538;48.884;8.696;2022-07-10T04:41:34;99481.84;;;17.93;72.45
22743;BME280;11538;48.884;8.696;2022-07-10T04:44:01;99474.91;;;17.96;71.90
22743;BME280;11538;48.884;8.696;2022-07-10T04:46:28;99473.41;;;17.98;72.07
22743;BME280;11538;48.884;8.696;2022-07-10T04:48:55;99472.47;;;17.94;71.86
22743;BME280;11538;48.884;8.696;2022-07-10T04:51:22;99464.28;;;17.86;72.09
22743;BME280;11538;48.884;8.696;2022-07-10T04:53:50;99474.47;;;17.85;71.97
22743;BME280;11538;48.884;8.696;2022-07-10T04:56:17;99475.91;;;17.82;71.98
22743;BME280;11538;48.884;8.696;2022-07-10T04:58:43;99478.19;;;17.80;71.70
22743;BME280;11538;48.884;8.696;2022-07-10T05:01:18;99481.41;;;17.82;71.46
22743;BME280;11538;48.884;8.696;2022-07-10T05:03:48;99483.81;;;17.84;71.54
22743;BME280;11538;48.884;8.696;2022-07-10T05:06:15;99481.22;;;17.88;71.37
22743;BME280;11538;48.884;8.696;2022-07-10T05:08:42;99479.78;;;17.81;71.50
22743;BME280;11538;48.884;8.696;2022-07-10T05:11:09;99486.41;;;17.80;71.36
22743;BME280;11538;48.884;8.696;2022-07-10T05:13:36;99488.03;;;17.81;71.14
22743;BME280;11538;48.884;8.696;2022-07-10T05:16:06;99481.28;;;17.79;71.38
22743;BME280;11538;48.884;8.696;2022-07-10T05:18:33;99493.69;;;17.76;71.67
22743;BME280;11538;48.884;8.696;2022-07-10T05:21:00;99490.44;;;17.83;71.30
22743;BME280;11538;48.884;8.696;2022-07-10T05:23:27;99489.97;;;17.81;70.93
22743;BME280;11538;48.884;8.696;2022-07-10T05:25:54;99489.31;;;17.84;71.27
22743;BME280;11538;48.884;8.696;2022-07-10T05:28:21;99495.25;;;17.95;70.80
22743;BME280;11538;48.884;8.696;2022-07-10T05:30:48;99492.50;;;17.95;70.11
22743;BME280;11538;48.884;8.696;2022-07-10T05:33:16;99494.91;;;17.96;69.92
22743;BME280;11538;48.884;8.696;2022-07-10T05:35:44;99497.94;;;18.04;69.90
22743;BME280;11538;48.884;8.696;2022-07-10T05:38:14;99506.84;;;18.01;69.85
22743;BME280;11538;48.884;8.696;2022-07-10T05:40:41;99502.00;;;17.97;69.90
22743;BME280;11538;48.884;8.696;2022-07-10T05:43:08;99499.44;;;18.01;68.97
22743;BME280;11538;48.884;8.696;2022-07-10T05:45:37;99500.69;;;18.04;68.08
22743;BME280;11538;48.884;8.696;2022-07-10T05:48:04;99506.66;;;18.06;67.39
22743;BME280;11538;48.884;8.696;2022-07-10T05:50:31;99502.94;;;18.10;67.40
22743;BME280;11538;48.884;8.696;2022-07-10T05:52:58;99505.78;;;18.14;67.60
22743;BME280;11538;48.884;8.696;2022-07-10T05:55:25;99503.88;;;18.15;67.08
22743;BME280;11538;48.884;8.696;2022-07-10T05:57:52;99506.28;;;18.16;66.55
22743;BME280;11538;48.884;8.696;2022-07-10T06:00:21;99509.28;;;18.23;65.77
22743;BME280;11538;48.884;8.696;2022-07-10T06:02:48;99510.56;;;18.26;64.76
22743;BME280;11538;48.884;8.696;2022-07-10T06:05:15;99509.91;;;18.29;63.70
22743;BME280;11538;48.884;8.696;2022-07-10T06:07:42;99511.72;;;18.25;63.04
22743;BME280;11538;48.884;8.696;2022-07-10T06:10:09;99512.84;;;18.24;62.79
22743;BME280;11538;48.884;8.696;2022-07-10T06:12:36;99522.06;;;18.19;62.55
22743;BME280;11538;48.884;8.696;2022-07-10T06:15:04;99515.13;;;18.22;62.71
22743;BME280;11538;48.884;8.696;2022-07-10T06:17:31;99511.72;;;18.25;62.58
22743;BME280;11538;48.884;8.696;2022-07-10T06:19:58;99520.06;;;18.29;62.02
22743;BME280;11538;48.884;8.696;2022-07-10T06:22:25;99520.69;;;18.34;61.67
22743;BME280;11538;48.884;8.696;2022-07-10T06:25:03;99514.38;;;18.34;61.83
22743;BME280;11538;48.884;8.696;2022-07-10T06:27:31;99513.25;;;18.35;61.71
22743;BME280;11538;48.884;8.696;2022-07-10T06:29:59;99521.00;;;18.33;61.75
22743;BME280;11538;48.884;8.696;2022-07-10T06:32:27;99522.16;;;18.32;62.34
22743;BME280;11538;48.884;8.696;2022-07-10T06:34:54;99523.16;;;18.27;63.16
22743;BME280;11538;48.884;8.696;2022-07-10T06:37:21;99525.91;;;18.27;62.95
22743;BME280;11538;48.884;8.696;2022-07-10T06:39:48;99535.75;;;18.28;63.48
22743;BME280;11538;48.884;8.696;2022-07-10T06:42:16;99531.53;;;18.31;63.18
22743;BME280;11538;48.884;8.696;2022-07-10T06:44:43;99538.31;;;18.33;62.91
22743;BME280;11538;48.884;8.696;2022-07-10T06:47:17;99527.66;;;18.32;62.80
22743;BME280;11538;48.884;8.696;2022-07-10T06:50:04;99535.88;;;18.32;62.71
22743;BME280;11538;48.884;8.696;2022-07-10T06:52:33;99533.34;;;18.26;62.76
22743;BME280;11538;48.884;8.696;2022-07-10T06:55:02;99534.84;;;18.15;63.00
22743;BME280;11538;48.884;8.696;2022-07-10T06:57:30;99533.44;;;18.09;63.52
22743;BME280;11538;48.884;8.696;2022-07-10T06:59:57;99537.31;;;18.08;63.28
22743;BME280;11538;48.884;8.696;2022-07-10T07:02:23;99540.41;;;18.06;63.32
22743;BME280;11538;48.884;8.696;2022-07-10T07:04:50;99543.63;;;18.08;62.98
22743;BME280;11538;48.884;8.696;2022-07-10T07:07:17;99543.16;;;18.06;62.97
22743;BME280;11538;48.884;8.696;2022-07-10T07:09:51;99540.88;;;18.08;63.27
22743;BME280;11538;48.884;8.696;2022-07-10T07:12:19;99549.91;;;18.09;63.54
22743;BME280;11538;48.884;8.696;2022-07-10T07:14:45;99545.91;;;18.06;64.47
22743;BME280;11538;48.884;8.696;2022-07-10T07:17:14;99552.19;;;18.07;64.65
22743;BME280;11538;48.884;8.696;2022-07-10T07:19:49;99551.59;;;18.01;64.57
22743;BME280;11538;48.884;8.696;2022-07-10T07:22:35;99551.41;;;18.06;64.41
22743;BME280;11538;48.884;8.696;2022-07-10T07:25:21;99550.38;;;18.11;63.79
22743;BME280;11538;48.884;8.696;2022-07-10T07:27:48;99552.28;;;18.19;63.56
22743;BME280;11538;48.884;8.696;2022-07-10T07:30:15;99556.63;;;18.20;62.63
22743;BME280;11538;48.884;8.696;2022-07-10T07:32:44;99556.34;;;18.13;62.42
22743;BME280;11538;48.884;8.696;2022-07-10T07:35:14;99551.34;;;18.15;62.02
22743;BME280;11538;48.884;8.696;2022-07-10T07:37:45;99551.81;;;18.17;61.76
22743;BME280;11538;48.884;8.696;2022-07-10T07:40:19;99549.91;;;18.09;62.20
22743;BME280;11538;48.884;8.696;2022-07-10T07:42:51;99550.25;;;18.07;62.62
22743;BME280;11538;48.884;8.696;2022-07-10T07:45:20;99553.41;;;18.18;62.48
22743;BME280;11538;48.884;8.696;2022-07-10T07:47:54;99562.75;;;18.26;62.14
22743;BME280;11538;48.884;8.696;2022-07-10T07:50:28;99556.25;;;18.31;61.50
22743;BME280;11538;48.884;8.696;2022-07-10T07:52:55;99552.34;;;18.32;61.21
22743;BME280;11538;48.884;8.696;2022-07-10T07:55:24;99555.09;;;18.32;61.49
22743;BME280;11538;48.884;8.696;2022-07-10T07:57:53;99552.84;;;18.34;61.54
22743;BME280;11538;48.884;8.696;2022-07-10T08:00:22;99551.97;;;18.42;61.37
22743;BME280;11538;48.884;8.696;2022-07-10T08:02:51;99558.56;;;18.50;61.00
22743;BME280;11538;48.884;8.696;2022-07-10T08:05:19;99556.94;;;18.49;60.94
22743;BME280;11538;48.884;8.696;2022-07-10T08:07:54;99553.56;;;18.43;61.10
22743;BME280;11538;48.884;8.696;2022-07-10T08:10:24;99549.16;;;18.30;61.15
22743;BME280;11538;48.884;8.696;2022-07-10T08:12:53;99550.63;;;18.27;61.42
22743;BME280;11538;48.884;8.696;2022-07-10T08:15:21;99551.22;;;18.33;61.70
22743;BME280;11538;48.884;8.696;2022-07-10T08:17:54;99542.13;;;18.41;61.31
22743;BME280;11538;48.884;8.696;2022-07-10T08:20:23;99546.75;;;18.49;60.99
22743;BME280;11538;48.884;8.696;2022-07-10T08:22:50;99545.75;;;18.54;60.86
22743;BME280;11538;48.884;8.696;2022-07-10T08:25:26;99542.81;;;18.59;60.92
22743;BME280;11538;48.884;8.696;2022-07-10T08:27:54;99537.25;;;18.68;60.60
22743;BME280;11538;48.884;8.696;2022-07-10T08:30:21;99537.25;;;18.68;60.51
22743;BME280;11538;48.884;8.696;2022-07-10T08:32:48;99538.31;;;18.76;59.56
22743;BME280;11538;48.884;8.696;2022-07-10T08:35:15;99535.59;;;18.88;58.73
22743;BME280;11538;48.884;8.696;2022-07-10T08:37:44;99536.91;;;18.91;58.14
22743;BME280;11538;48.884;8.696;2022-07-10T08:40:16;99526.53;;;19.09;57.75
22743;BME280;11538;48.884;8.696;2022-07-10T08:42:44;99529.09;;;19.14;57.73
22743;BME280;11538;48.884;8.696;2022-07-10T08:45:13;99534.66;;;19.26;57.36
22743;BME280;11538;48.884;8.696;2022-07-10T08:47:41;99531.75;;;19.23;56.79
22743;BME280;11538;48.884;8.696;2022-07-10T08:50:24;99529.06;;;19.60;55.53
22743;BME280;11538;48.884;8.696;2022-07-10T08:53:01;99526.03;;;19.99;53.79
22743;BME280;11538;48.884;8.696;2022-07-10T08:55:31;99520.50;;;19.99;53.35
22743;BME280;11538;48.884;8.696;2022-07-10T08:57:59;99525.78;;;19.92;53.68
22743;BME280;11538;48.884;8.696;2022-07-10T09:00:27;99516.00;;;19.82;53.25
22743;BME280;11538;48.884;8.696;2022-07-10T09:02:55;99524.03;;;19.87;53.59
22743;BME280;11538;48.884;8.696;2022-07-10T09:05:26;99531.31;;;19.92;54.14
22743;BME280;11538;48.884;8.696;2022-07-10T09:07:54;99531.66;;;19.90;54.53
22743;BME280;11538;48.884;8.696;2022-07-10T09:10:26;99532.50;;;19.82;54.49
22743;BME280;11538;48.884;8.696;2022-07-10T09:12:59;99529.38;;;19.92;54.09
22743;BME280;11538;48.884;8.696;2022-07-10T09:15:29;99526.84;;;19.99;52.79
22743;BME280;11538;48.884;8.696;2022-07-10T09:18:04;99528.78;;;19.99;52.79
22743;BME280;11538;48.884;8.696;2022-07-10T09:20:39;99525.19;;;19.86;53.23
22743;BME280;11538;48.884;8.696;2022-07-10T09:23:17;99531.38;;;19.70;54.31
22743;BME280;11538;48.884;8.696;2022-07-10T09:25:53;99534.47;;;19.81;54.35
22743;BME280;11538;48.884;8.696;2022-07-10T09:28:21;99530.84;;;20.02;53.67
22743;BME280;11538;48.884;8.696;2022-07-10T09:30:49;99535.31;;;20.19;53.31
22743;BME280;11538;48.884;8.696;2022-07-10T09:33:30;99527.94;;;20.36;53.20
22743;BME280;11538;48.884;8.696;2022-07-10T09:36:09;99534.16;;;20.20;53.06
22743;BME280;11538;48.884;8.696;2022-07-10T09:38:47;99550.22;;;20.18;52.53
22743;BME280;11538;48.884;8.696;2022-07-10T09:41:30;99540.47;;;20.08;51.91
22743;BME280;11538;48.884;8.696;2022-07-10T09:44:03;99536.56;;;19.97;51.36
22743;BME280;11538;48.884;8.696;2022-07-10T09:46:38;99543.22;;;20.08;51.48
22743;BME280;11538;48.884;8.696;2022-07-10T09:49:14;99532.28;;;20.37;50.72
22743;BME280;11538;48.884;8.696;2022-07-10T09:51:46;99536.00;;;20.69;50.05
22743;BME280;11538;48.884;8.696;2022-07-10T09:54:16;99524.03;;;21.06;49.77
22743;BME280;11538;48.884;8.696;2022-07-10T09:56:46;99522.94;;;21.39;47.76
22743;BME280;11538;48.884;8.696;2022-07-10T09:59:17;99531.59;;;21.09;48.21
22743;BME280;11538;48.884;8.696;2022-07-10T10:01:50;99528.28;;;20.75;48.19
22743;BME280;11538;48.884;8.696;2022-07-10T10:04:20;99534.72;;;20.67;48.17
22743;BME280;11538;48.884;8.696;2022-07-10T10:06:52;99536.69;;;20.66;47.84
22743;BME280;11538;48.884;8.696;2022-07-10T10:09:33;99535.25;;;21.13;46.88
22743;BME280;11538;48.884;8.696;2022-07-10T10:12:07;99524.25;;;21.61;45.43
22743;BME280;11538;48.884;8.696;2022-07-10T10:14:38;99514.25;;;22.41;43.73
22743;BME280;11538;48.884;8.696;2022-07-10T10:17:07;99517.22;;;22.12;42.86
22743;BME280;11538;48.884;8.696;2022-07-10T10:19:35;99526.16;;;21.73;43.94
22743;BME280;11538;48.884;8.696;2022-07-10T10:22:24;99517.50;;;21.43;44.15
22743;BME280;11538;48.884;8.696;2022-07-10T10:24:53;99523.72;;;21.24;44.96
22743;BME280;11538;48.884;8.696;2022-07-10T10:27:21;99517.84;;;21.25;44.27
22743;BME280;11538;48.884;8.696;2022-07-10T10:29:48;99517.06;;;21.25;43.63
22743;BME280;11538;48.884;8.696;2022-07-10T10:32:16;99505.66;;;21.42;43.73
22743;BME280;11538;48.884;8.696;2022-07-10T10:34:47;99504.50;;;22.27;43.32
22743;BME280;11538;48.884;8.696;2022-07-10T10:37:37;99501.72;;;22.63;40.97
22743;BME280;11538;48.884;8.696;2022-07-10T10:40:07;99509.09;;;22.75;40.92
22743;BME280;11538;48.884;8.696;2022-07-10T10:42:38;99502.59;;;22.47;41.09
22743;BME280;11538;48.884;8.696;2022-07-10T10:45:34;99508.97;;;22.32;41.63
22743;BME280;11538;48.884;8.696;2022-07-10T10:48:11;99503.63;;;22.23;41.08
22743;BME280;11538;48.884;8.696;2022-07-10T10:50:58;99500.50;;;23.23;39.65
22743;BME280;11538;48.884;8.696;2022-07-10T10:53:28;99500.72;;;23.34;38.90
22743;BME280;11538;48.884;8.696;2022-07-10T10:58:28;99510.31;;;23.63;38.29
22743;BME280;11538;48.884;8.696;2022-07-10T11:01:23;99506.44;;;24.22;36.71
22743;BME280;11538;48.884;8.696;2022-07-10T11:12:21;99510.03;;;23.72;36.77
22743;BME280;11538;48.884;8.696;2022-07-10T11:14:47;99505.69;;;23.25;37.24
22743;BME280;11538;48.884;8.696;2022-07-10T11:17:16;99513.50;;;23.92;36.21
22743;BME280;11538;48.884;8.696;2022-07-10T11:19:42;99506.34;;;24.76;33.97
22743;BME280;11538;48.884;8.696;2022-07-10T11:22:40;99507.72;;;25.31;32.81
22743;BME280;11538;48.884;8.696;2022-07-10T11:25:37;99496.78;;;25.49;33.79
22743;BME280;11538;48.884;8.696;2022-07-10T11:28:11;99501.56;;;25.10;33.50
22743;BME280;11538;48.884;8.696;2022-07-10T11:30:53;99497.41;;;25.28;33.18
22743;BME280;11538;48.884;8.696;2022-07-10T11:33:21;99497.75;;;25.22;34.12
22743;BME280;11538;48.884;8.696;2022-07-10T11:35:52;99492.97;;;24.85;33.20
22743;BME280;11538;48.884;8.696;2022-07-10T11:38:24;99503.88;;;25.01;33.80
22743;BME280;11538;48.884;8.696;2022-07-10T11:40:52;99490.84;;;26.06;31.22
22743;BME280;11538;48.884;8.696;2022-07-10T11:43:22;99492.84;;;26.87;31.18
22743;BME280;11538;48.884;8.696;2022-07-10T11:45:52;99495.69;;;27.09;29.36
22743;BME280;11538;48.884;8.696;2022-07-10T11:48:22;99484.19;;;27.57;28.71
22743;BME280;11538;48.884;8.696;2022-07-10T11:50:50;99481.03;;;27.59;29.39
22743;BME280;11538;48.884;8.696;2022-07-10T11:53:26;99495.72;;;27.59;28.99
22743;BME280;11538;48.884;8.696;2022-07-10T11:55:53;99502.38;;;26.90;29.09
22743;BME280;11538;48.884;8.696;2022-07-10T11:58:21;99502.06;;;27.27;30.41
22743;BME280;11538;48.884;8.696;2022-07-10T12:01:01;99498.88;;;28.05;27.54
22743;BME280;11538;48.884;8.696;2022-07-10T12:03:31;99488.16;;;27.27;27.81
22743;BME280;11538;48.884;8.696;2022-07-10T12:06:04;99481.53;;;26.43;29.52
22743;BME280;11538;48.884;8.696;2022-07-10T12:08:47;99488.16;;;27.64;28.32
22743;BME280;11538;48.884;8.696;2022-07-10T12:11:17;99482.44;;;28.43;27.05
22743;BME280;11538;48.884;8.696;2022-07-10T12:13:50;99484.13;;;29.04;26.58
22743;BME280;11538;48.884;8.696;2022-07-10T12:16:18;99488.38;;;28.56;26.52
22743;BME280;11538;48.884;8.696;2022-07-10T12:18:46;99481.69;;;28.32;27.14
22743;BME280;11538;48.884;8.696;2022-07-10T12:21:14;99480.69;;;28.79;26.78
22743;BME280;11538;48.884;8.696;2022-07-10T12:23:43;99476.66;;;28.91;26.34
22743;BME280;11538;48.884;8.696;2022-07-10T12:26:12;99486.91;;;29.61;26.53
22743;BME280;11538;48.884;8.696;2022-07-10T12:28:54;99481.31;;;30.07;25.00
22743;BME280;11538;48.884;8.696;2022-07-10T12:31:30;99471.34;;;30.05;24.55
22743;BME280;11538;48.884;8.696;2022-07-10T12:34:04;99473.47;;;29.90;24.77
22743;BME280;11538;48.884;8.696;2022-07-10T12:36:52;99471.72;;;30.08;24.33
22743;BME280;11538;48.884;8.696;2022-07-10T12:39:22;99476.63;;;29.92;24.73
22743;BME280;11538;48.884;8.696;2022-07-10T12:44:44;99484.19;;;30.34;23.69
22743;BME280;11538;48.884;8.696;2022-07-10T12:47:17;99484.66;;;30.29;23.99
22743;BME280;11538;48.884;8.696;2022-07-10T12:50:11;99479.28;;;30.11;25.64
22743;BME280;11538;48.884;8.696;2022-07-10T12:52:39;99480.53;;;30.06;24.53
22743;BME280;11538;48.884;8.696;2022-07-10T12:57:50;99481.72;;;29.63;25.36
22743;BME280;11538;48.884;8.696;2022-07-10T13:00:23;99472.50;;;30.43;24.52
22743;BME280;11538;48.884;8.696;2022-07-10T13:03:05;99477.88;;;30.92;23.90
22743;BME280;11538;48.884;8.696;2022-07-10T13:05:35;99478.25;;;31.21;23.46
22743;BME280;11538;48.884;8.696;2022-07-10T13:08:20;99469.00;;;31.25;23.35
22743;BME280;11538;48.884;8.696;2022-07-10T13:10:58;99465.19;;;30.84;22.64
22743;BME280;11538;48.884;8.696;2022-07-10T13:13:27;99465.41;;;30.69;23.61
22743;BME280;11538;48.884;8.696;2022-07-10T13:15:57;99467.75;;;30.05;24.16
22743;BME280;11538;48.884;8.696;2022-07-10T13:18:27;99466.03;;;28.60;25.13
22743;BME280;11538;48.884;8.696;2022-07-10T13:20:56;99470.66;;;27.70;26.71
22743;BME280;11538;48.884;8.696;2022-07-10T13:23:30;99467.06;;;27.19;27.81
22743;BME280;11538;48.884;8.696;2022-07-10T13:25:59;99473.66;;;28.49;26.52
22743;BME280;11538;48.884;8.696;2022-07-10T13:28:28;99466.31;;;28.84;26.02
22743;BME280;11538;48.884;8.696;2022-07-10T13:30:55;99467.38;;;28.12;27.01